sensor_id;sensor_type;location;lat;lon;timestamp;pressure;altitude;pressure_sealevel;temperature;humidity
71996;BME280;59862;47.732;7.346;2022-10-17T00:00:42;98527.31;;;16.12;72.06
71996;BME280;59862;47.732;7.346;2022-10-17T00:03:10;98532.51;;;16.14;72.16
71996;BME280;59862;47.732;7.346;2022-10-17T00:05:42;98524.48;;;16.10;72.16
71996;BME280;59862;47.732;7.346;2022-10-17T00:08:12;98523.73;;;15.99;72.56
71996;BME280;59862;47.732;7.346;2022-10-17T00:10:40;98520.00;;;16.00;72.68
71996;BME280;59862;47.732;7.346;2022-10-17T00:13:08;98523.62;;;15.96;72.65
71996;BME280;59862;47.732;7.346;2022-10-17T00:15:36;98515.92;;;15.93;72.46
71996;BME280;59862;47.732;7.346;2022-10-17T00:18:04;98513.22;;;15.93;72.72
71996;BME280;59862;47.732;7.346;2022-10-17T00:20:38;98512.80;;;15.89;72.58
71996;BME280;59862;47.732;7.346;2022-10-17T00:23:02;98505.49;;;15.90;72.78
71996;BME280;59862;47.732;7.346;2022-10-17T00:25:29;98511.86;;;15.93;72.43
71996;BME280;59862;47.732;7.346;2022-10-17T00:27:56;98518.42;;;15.94;72.49
71996;BME280;59862;47.732;7.346;2022-10-17T00:30:24;98516.16;;;15.98;72.66
71996;BME280;59862;47.732;7.346;2022-10-17T00:32:51;98521.14;;;16.01;72.22
71996;BME280;59862;47.732;7.346;2022-10-17T00:35:19;98524.91;;;16.00;72.36
71996;BME280;59862;47.732;7.346;2022-10-17T00:37:46;98521.25;;;16.04;72.45
71996;BME280;59862;47.732;7.346;2022-10-17T00:40:14;98526.27;;;16.07;72.28
71996;BME280;59862;47.732;7.346;2022-10-17T00:42:41;98530.31;;;16.00;72.24
71996;BME280;59862;47.732;7.346;2022-10-17T00:45:18;98534.16;;;16.02;72.29
71996;BME280;59862;47.732;7.346;2022-10-17T00:47:55;98533.81;;;15.94;72.46
71996;BME280;59862;47.732;7.346;2022-10-17T00:50:19;98529.36;;;15.97;72.60
71996;BME280;59862;47.732;7.346;2022-10-17T00:52:48;98537.70;;;15.96;72.73
71996;BME280;59862;47.732;7.346;2022-10-17T00:55:24;98541.11;;;15.87;72.90
71996;BME280;59862;47.732;7.346;2022-10-17T00:57:56;98543.97;;;15.79;73.00
71996;BME280;59862;47.732;7.346;2022-10-17T01:00:24;98543.55;;;15.75;73.20
71996;BME280;59862;47.732;7.346;2022-10-17T01:02:52;98546.02;;;15.70;73.23
71996;BME280;59862;47.732;7.346;2022-10-17T01:05:20;98544.49;;;15.72;73.35
71996;BME280;59862;47.732;7.346;2022-10-17T01:07:49;98545.84;;;15.72;73.39
71996;BME280;59862;47.732;7.346;2022-10-17T01:10:19;98548.31;;;15.67;73.51
71996;BME280;59862;47.732;7.346;2022-10-17T01:13:07;98541.34;;;15.68;73.45
71996;BME280;59862;47.732;7.346;2022-10-17T01:15:47;98539.45;;;15.62;73.68
71996;BME280;59862;47.732;7.346;2022-10-17T01:18:25;98536.86;;;15.65;73.71
71996;BME280;59862;47.732;7.346;2022-10-17T01:21:15;98542.99;;;15.63;73.76
71996;BME280;59862;47.732;7.346;2022-10-17T01:32:16;98535.14;;;15.40;74.44
71996;BME280;59862;47.732;7.346;2022-10-17T01:35:20;98535.14;;;15.40;74.68
71996;BME280;59862;47.732;7.346;2022-10-17T01:38:04;98526.73;;;15.39;74.69
71996;BME280;59862;47.732;7.346;2022-10-17T01:43:32;98537.28;;;15.45;74.25
71996;BME280;59862;47.732;7.346;2022-10-17T01:46:12;98540.47;;;15.55;73.69
71996;BME280;59862;47.732;7.346;2022-10-17T01:48:34;98541.64;;;15.63;73.46
71996;BME280;59862;47.732;7.346;2022-10-17T01:51:19;98541.88;;;15.68;73.16
71996;BME280;59862;47.732;7.346;2022-10-17T01:54:09;98540.22;;;15.73;73.05
71996;BME280;59862;47.732;7.346;2022-10-17T01:56:23;98543.44;;;15.73;73.06
71996;BME280;59862;47.732;7.346;2022-10-17T01:58:59;98548.01;;;15.72;73.18
71996;BME280;59862;47.732;7.346;2022-10-17T02:01:23;98554.80;;;15.79;73.01
71996;BME280;59862;47.732;7.346;2022-10-17T02:03:54;98548.45;;;15.76;72.96
71996;BME280;59862;47.732;7.346;2022-10-17T02:06:22;98546.14;;;15.73;73.33
71996;BME280;59862;47.732;7.346;2022-10-17T02:08:51;98549.66;;;15.67;73.40
71996;BME280;59862;47.732;7.346;2022-10-17T02:11:20;98547.14;;;15.59;73.57
71996;BME280;59862;47.732;7.346;2022-10-17T02:14:10;98549.27;;;15.53;73.78
71996;BME280;59862;47.732;7.346;2022-10-17T02:22:37;98547.49;;;15.32;74.60
71996;BME280;59862;47.732;7.346;2022-10-17T02:25:28;98546.11;;;15.26;75.03
71996;BME280;59862;47.732;7.346;2022-10-17T02:30:44;98540.95;;;15.13;75.41
71996;BME280;59862;47.732;7.346;2022-10-17T02:33:13;98542.94;;;15.15;75.39
71996;BME280;59862;47.732;7.346;2022-10-17T02:35:44;98537.08;;;15.12;75.49
71996;BME280;59862;47.732;7.346;2022-10-17T02:38:13;98544.16;;;15.13;75.56
71996;BME280;59862;47.732;7.346;2022-10-17T02:40:41;98538.00;;;15.08;75.66
71996;BME280;59862;47.732;7.346;2022-10-17T02:43:11;98538.55;;;15.14;75.60
71996;BME280;59862;47.732;7.346;2022-10-17T02:45:40;98539.06;;;15.14;75.62
71996;BME280;59862;47.732;7.346;2022-10-17T02:48:11;98542.94;;;15.15;75.71
71996;BME280;59862;47.732;7.346;2022-10-17T02:53:43;98541.16;;;15.18;75.57
71996;BME280;59862;47.732;7.346;2022-10-17T02:56:17;98542.52;;;15.18;75.59
71996;BME280;59862;47.732;7.346;2022-10-17T02:58:42;98538.92;;;15.22;75.60
71996;BME280;59862;47.732;7.346;2022-10-17T03:01:12;98544.84;;;15.22;75.52
71996;BME280;59862;47.732;7.346;2022-10-17T03:03:40;98539.98;;;15.28;75.45
71996;BME280;59862;47.732;7.346;2022-10-17T03:06:07;98542.59;;;15.32;75.42
71996;BME280;59862;47.732;7.346;2022-10-17T03:08:35;98534.60;;;15.34;75.33
71996;BME280;59862;47.732;7.346;2022-10-17T03:11:02;98539.77;;;15.29;75.26
71996;BME280;59862;47.732;7.346;2022-10-17T03:13:30;98539.98;;;15.28;75.44
71996;BME280;59862;47.732;7.346;2022-10-17T03:15:57;98540.61;;;15.30;75.26
71996;BME280;59862;47.732;7.346;2022-10-17T03:18:25;98540.31;;;15.29;75.15
71996;BME280;59862;47.732;7.346;2022-10-17T03:20:52;98548.84;;;15.32;74.96
71996;BME280;59862;47.732;7.346;2022-10-17T03:23:20;98549.81;;;15.35;74.89
71996;BME280;59862;47.732;7.346;2022-10-17T03:25:47;98546.27;;;15.35;74.92
71996;BME280;59862;47.732;7.346;2022-10-17T03:28:14;98551.25;;;15.38;75.10
71996;BME280;59862;47.732;7.346;2022-10-17T03:30:42;98549.59;;;15.37;74.93
71996;BME280;59862;47.732;7.346;2022-10-17T03:33:09;98558.67;;;15.40;75.03
71996;BME280;59862;47.732;7.346;2022-10-17T03:35:38;98558.34;;;15.39;74.99
71996;BME280;59862;47.732;7.346;2022-10-17T03:38:06;98563.24;;;15.39;75.06
71996;BME280;59862;47.732;7.346;2022-10-17T03:40:33;98572.45;;;15.34;75.01
71996;BME280;59862;47.732;7.346;2022-10-17T03:43:01;98565.27;;;15.31;75.37
71996;BME280;59862;47.732;7.346;2022-10-17T03:45:28;98562.58;;;15.31;75.26
71996;BME280;59862;47.732;7.346;2022-10-17T03:47:57;98568.28;;;15.32;75.23
71996;BME280;59862;47.732;7.346;2022-10-17T03:50:25;98562.48;;;15.35;75.12
71996;BME280;59862;47.732;7.346;2022-10-17T03:52:52;98569.63;;;15.32;75.14
71996;BME280;59862;47.732;7.346;2022-10-17T03:55:20;98561.99;;;15.25;75.00
71996;BME280;59862;47.732;7.346;2022-10-17T03:57:47;98561.56;;;15.21;75.30
71996;BME280;59862;47.732;7.346;2022-10-17T04:00:15;98564.70;;;15.25;75.06
71996;BME280;59862;47.732;7.346;2022-10-17T04:02:42;98563.05;;;15.24;75.15
71996;BME280;59862;47.732;7.346;2022-10-17T04:05:10;98560.34;;;15.24;75.13
71996;BME280;59862;47.732;7.346;2022-10-17T04:07:37;98563.55;;;15.23;75.15
71996;BME280;59862;47.732;7.346;2022-10-17T04:10:06;98562.58;;;15.31;74.75
71996;BME280;59862;47.732;7.346;2022-10-17T04:12:33;98559.15;;;15.33;74.79
71996;BME280;59862;47.732;7.346;2022-10-17T04:15:01;98573.60;;;15.36;74.61
71996;BME280;59862;47.732;7.346;2022-10-17T04:17:30;98573.81;;;15.34;74.91
71996;BME280;59862;47.732;7.346;2022-10-17T04:19:57;98582.85;;;15.31;74.67
71996;BME280;59862;47.732;7.346;2022-10-17T04:22:24;98581.08;;;15.34;74.79
71996;BME280;59862;47.732;7.346;2022-10-17T04:24:52;98581.42;;;15.35;74.76
71996;BME280;59862;47.732;7.346;2022-10-17T04:27:19;98584.20;;;15.31;74.96
71996;BME280;59862;47.732;7.346;2022-10-17T04:29:47;98582.05;;;15.19;75.37
71996;BME280;59862;47.732;7.346;2022-10-17T04:32:14;98598.15;;;15.17;75.46
71996;BME280;59862;47.732;7.346;2022-10-17T04:34:42;98591.98;;;15.12;75.61
71996;BME280;59862;47.732;7.346;2022-10-17T04:37:09;98597.84;;;15.05;75.91
71996;BME280;59862;47.732;7.346;2022-10-17T04:39:37;98604.69;;;15.01;76.06
71996;BME280;59862;47.732;7.346;2022-10-17T04:42:04;98608.17;;;14.95;76.28
71996;BME280;59862;47.732;7.346;2022-10-17T04:44:32;98600.53;;;14.88;76.48
71996;BME280;59862;47.732;7.346;2022-10-17T04:47:01;98611.34;;;14.88;76.54
71996;BME280;59862;47.732;7.346;2022-10-17T04:49:28;98607.56;;;14.83;76.63
71996;BME280;59862;47.732;7.346;2022-10-17T04:51:55;98609.09;;;14.81;76.74
71996;BME280;59862;47.732;7.346;2022-10-17T04:54:23;98608.93;;;14.72;77.12
71996;BME280;59862;47.732;7.346;2022-10-17T04:56:50;98604.41;;;14.69;77.21
71996;BME280;59862;47.732;7.346;2022-10-17T04:59:18;98610.73;;;14.65;77.32
71996;BME280;59862;47.732;7.346;2022-10-17T05:01:47;98607.77;;;14.60;77.74
71996;BME280;59862;47.732;7.346;2022-10-17T05:04:14;98610.53;;;14.56;77.81
71996;BME280;59862;47.732;7.346;2022-10-17T05:06:42;98601.16;;;14.41;78.23
71996;BME280;59862;47.732;7.346;2022-10-17T05:09:09;98603.02;;;14.41;78.38
71996;BME280;59862;47.732;7.346;2022-10-17T05:11:37;98607.06;;;14.41;78.22
71996;BME280;59862;47.732;7.346;2022-10-17T05:14:04;98606.63;;;14.48;77.99
71996;BME280;59862;47.732;7.346;2022-10-17T05:16:33;98613.87;;;14.58;77.56
71996;BME280;59862;47.732;7.346;2022-10-17T05:19:01;98611.44;;;14.63;77.37
71996;BME280;59862;47.732;7.346;2022-10-17T05:21:30;98615.09;;;14.66;77.52
71996;BME280;59862;47.732;7.346;2022-10-17T05:23:58;98621.20;;;14.64;77.31
71996;BME280;59862;47.732;7.346;2022-10-17T05:26:25;98621.84;;;14.66;76.91
71996;BME280;59862;47.732;7.346;2022-10-17T05:28:53;98625.14;;;14.72;76.83
71996;BME280;59862;47.732;7.346;2022-10-17T05:31:21;98621.39;;;14.73;76.46
71996;BME280;59862;47.732;7.346;2022-10-17T05:33:48;98624.09;;;14.73;76.43
71996;BME280;59862;47.732;7.346;2022-10-17T05:36:16;98632.13;;;14.77;76.22
71996;BME280;59862;47.732;7.346;2022-10-17T05:38:47;98633.81;;;14.78;76.16
71996;BME280;59862;47.732;7.346;2022-10-17T05:41:12;98630.06;;;14.79;76.30
71996;BME280;59862;47.732;7.346;2022-10-17T05:43:39;98631.11;;;14.78;76.24
71996;BME280;59862;47.732;7.346;2022-10-17T05:46:07;98628.66;;;14.73;76.50
71996;BME280;59862;47.732;7.346;2022-10-17T05:48:34;98640.64;;;14.74;76.47
71996;BME280;59862;47.732;7.346;2022-10-17T05:51:05;98637.30;;;14.72;76.44
71996;BME280;59862;47.732;7.346;2022-10-17T05:53:36;98645.77;;;14.69;76.73
71996;BME280;59862;47.732;7.346;2022-10-17T05:56:06;98645.91;;;14.72;76.62
71996;BME280;59862;47.732;7.346;2022-10-17T05:58:34;98648.84;;;14.66;76.83
71996;BME280;59862;47.732;7.346;2022-10-17T06:01:04;98653.44;;;14.66;76.62
71996;BME280;59862;47.732;7.346;2022-10-17T06:03:32;98659.28;;;14.69;76.72
71996;BME280;59862;47.732;7.346;2022-10-17T06:06:05;98660.70;;;14.65;76.71
71996;BME280;59862;47.732;7.346;2022-10-17T06:08:33;98664.31;;;14.72;76.54
71996;BME280;59862;47.732;7.346;2022-10-17T06:11:01;98663.84;;;14.69;76.63
71996;BME280;59862;47.732;7.346;2022-10-17T06:13:28;98661.27;;;14.71;76.59
71996;BME280;59862;47.732;7.346;2022-10-17T06:15:57;98668.94;;;14.78;76.37
71996;BME280;59862;47.732;7.346;2022-10-17T06:18:24;98666.23;;;14.78;76.40
71996;BME280;59862;47.732;7.346;2022-10-17T06:20:52;98676.33;;;14.80;76.31
71996;BME280;59862;47.732;7.346;2022-10-17T06:23:19;98681.66;;;14.84;76.31
71996;BME280;59862;47.732;7.346;2022-10-17T06:25:47;98677.81;;;14.83;76.16
71996;BME280;59862;47.732;7.346;2022-10-17T06:28:14;98682.70;;;14.83;76.56
71996;BME280;59862;47.732;7.346;2022-10-17T06:30:42;98687.98;;;14.81;76.25
71996;BME280;59862;47.732;7.346;2022-10-17T06:33:10;98683.22;;;14.83;76.27
71996;BME280;59862;47.732;7.346;2022-10-17T06:35:37;98695.17;;;14.84;76.22
71996;BME280;59862;47.732;7.346;2022-10-17T06:38:05;98693.82;;;14.84;76.06
71996;BME280;59862;47.732;7.346;2022-10-17T06:40:32;98699.80;;;14.90;76.06
71996;BME280;59862;47.732;7.346;2022-10-17T06:42:59;98699.34;;;14.97;75.84
71996;BME280;59862;47.732;7.346;2022-10-17T06:45:27;98707.86;;;15.05;75.81
71996;BME280;59862;47.732;7.346;2022-10-17T06:47:54;98701.02;;;15.09;75.50
71996;BME280;59862;47.732;7.346;2022-10-17T06:50:22;98712.91;;;15.14;75.31
71996;BME280;59862;47.732;7.346;2022-10-17T06:52:51;98714.27;;;15.14;75.24
71996;BME280;59862;47.732;7.346;2022-10-17T06:55:18;98705.36;;;15.20;75.15
71996;BME280;59862;47.732;7.346;2022-10-17T06:57:45;98710.95;;;15.30;74.83
71996;BME280;59862;47.732;7.346;2022-10-17T07:00:13;98712.83;;;15.40;74.31
71996;BME280;59862;47.732;7.346;2022-10-17T07:02:42;98712.50;;;15.49;74.05
71996;BME280;59862;47.732;7.346;2022-10-17T07:05:10;98711.19;;;15.56;73.92
71996;BME280;59862;47.732;7.346;2022-10-17T07:07:37;98721.13;;;15.66;73.65
71996;BME280;59862;47.732;7.346;2022-10-17T07:10:05;98722.86;;;15.73;73.72
71996;BME280;59862;47.732;7.346;2022-10-17T07:12:36;98722.58;;;15.79;72.87
71996;BME280;59862;47.732;7.346;2022-10-17T07:15:04;98727.56;;;15.92;72.77
71996;BME280;59862;47.732;7.346;2022-10-17T07:17:32;98725.98;;;16.05;72.52
71996;BME280;59862;47.732;7.346;2022-10-17T07:19:59;98730.50;;;16.15;71.98
71996;BME280;59862;47.732;7.346;2022-10-17T07:22:28;98735.13;;;16.27;71.80
71996;BME280;59862;47.732;7.346;2022-10-17T07:24:55;98733.74;;;16.44;71.44
71996;BME280;59862;47.732;7.346;2022-10-17T07:27:23;98741.86;;;16.61;70.69
71996;BME280;59862;47.732;7.346;2022-10-17T07:29:50;98745.14;;;16.81;70.63
71996;BME280;59862;47.732;7.346;2022-10-17T07:32:17;98742.38;;;16.91;69.42
71996;BME280;59862;47.732;7.346;2022-10-17T07:34:45;98746.47;;;17.04;69.57
71996;BME280;59862;47.732;7.346;2022-10-17T07:37:12;98760.85;;;17.11;69.33
71996;BME280;59862;47.732;7.346;2022-10-17T07:39:40;98759.33;;;17.19;68.56
71996;BME280;59862;47.732;7.346;2022-10-17T07:42:07;98760.25;;;17.29;68.48
71996;BME280;59862;47.732;7.346;2022-10-17T07:44:34;98758.69;;;17.37;67.80
71996;BME280;59862;47.732;7.346;2022-10-17T07:47:02;98774.78;;;17.45;68.22
71996;BME280;59862;47.732;7.346;2022-10-17T07:49:30;98773.53;;;17.48;68.04
71996;BME280;59862;47.732;7.346;2022-10-17T07:51:57;98782.73;;;17.53;67.44
71996;BME280;59862;47.732;7.346;2022-10-17T07:54:25;98780.98;;;17.63;67.28
71996;BME280;59862;47.732;7.346;2022-10-17T07:56:52;98786.81;;;17.66;67.16
71996;BME280;59862;47.732;7.346;2022-10-17T07:59:19;98782.00;;;17.81;67.18
71996;BME280;59862;47.732;7.346;2022-10-17T08:01:47;98781.47;;;17.95;66.94
71996;BME280;59862;47.732;7.346;2022-10-17T08:04:14;98786.34;;;18.02;66.66
71996;BME280;59862;47.732;7.346;2022-10-17T08:06:42;98783.84;;;18.07;66.13
71996;BME280;59862;47.732;7.346;2022-10-17T08:09:10;98788.31;;;18.10;66.04
71996;BME280;59862;47.732;7.346;2022-10-17T08:11:38;98795.41;;;18.25;65.82
71996;BME280;59862;47.732;7.346;2022-10-17T08:14:05;98795.56;;;18.56;64.93
71996;BME280;59862;47.732;7.346;2022-10-17T08:16:32;98789.55;;;18.63;64.18
71996;BME280;59862;47.732;7.346;2022-10-17T08:19:00;98792.83;;;18.78;63.59
71996;BME280;59862;47.732;7.346;2022-10-17T08:21:28;98802.64;;;19.08;63.89
71996;BME280;59862;47.732;7.346;2022-10-17T08:23:56;98804.03;;;19.39;63.35
71996;BME280;59862;47.732;7.346;2022-10-17T08:26:24;98798.68;;;19.41;60.92
71996;BME280;59862;47.732;7.346;2022-10-17T08:28:52;98805.70;;;20.05;60.61
71996;BME280;59862;47.732;7.346;2022-10-17T08:31:19;98808.16;;;19.97;59.90
71996;BME280;59862;47.732;7.346;2022-10-17T08:33:49;98802.45;;;20.48;58.69
71996;BME280;59862;47.732;7.346;2022-10-17T08:36:18;98801.88;;;19.97;59.15
71996;BME280;59862;47.732;7.346;2022-10-17T08:38:47;98802.17;;;19.89;60.45
71996;BME280;59862;47.732;7.346;2022-10-17T08:46:51;98801.98;;;20.51;58.42
71996;BME280;59862;47.732;7.346;2022-10-17T08:49:42;98808.41;;;21.11;56.80
71996;BME280;59862;47.732;7.346;2022-10-17T08:52:19;98806.02;;;21.65;55.29
71996;BME280;59862;47.732;7.346;2022-10-17T08:54:44;98809.10;;;21.57;55.87
71996;BME280;59862;47.732;7.346;2022-10-17T08:57:14;98816.57;;;22.26;54.32
71996;BME280;59862;47.732;7.346;2022-10-17T08:59:44;98808.92;;;23.00;53.07
71996;BME280;59862;47.732;7.346;2022-10-17T09:02:35;98817.81;;;23.63;51.23
71996;BME280;59862;47.732;7.346;2022-10-17T09:08:07;98816.45;;;23.21;50.90
71996;BME280;59862;47.732;7.346;2022-10-17T09:16:27;98814.04;;;23.36;50.46
71996;BME280;59862;47.732;7.346;2022-10-17T09:19:24;98819.86;;;23.70;51.04
71996;BME280;59862;47.732;7.346;2022-10-17T09:21:42;98826.03;;;24.08;49.57
71996;BME280;59862;47.732;7.346;2022-10-17T09:24:19;98821.45;;;24.33;49.63
71996;BME280;59862;47.732;7.346;2022-10-17T09:26:47;98827.30;;;23.89;48.25
71996;BME280;59862;47.732;7.346;2022-10-17T09:29:20;98833.91;;;22.66;51.61
71996;BME280;59862;47.732;7.346;2022-10-17T09:32:07;98836.75;;;23.08;51.39
71996;BME280;59862;47.732;7.346;2022-10-17T09:34:32;98834.93;;;23.00;51.56
71996;BME280;59862;47.732;7.346;2022-10-17T09:37:00;98837.37;;;22.38;52.22
71996;BME280;59862;47.732;7.346;2022-10-17T09:39:29;98841.22;;;22.40;52.58
71996;BME280;59862;47.732;7.346;2022-10-17T09:41:59;98835.78;;;22.63;53.04
71996;BME280;59862;47.732;7.346;2022-10-17T09:44:33;98839.78;;;21.91;53.60
71996;BME280;59862;47.732;7.346;2022-10-17T09:47:38;98832.02;;;22.43;52.41
71996;BME280;59862;47.732;7.346;2022-10-17T09:50:20;98838.60;;;22.80;51.57
71996;BME280;59862;47.732;7.346;2022-10-17T09:52:47;98838.78;;;23.01;50.68
71996;BME280;59862;47.732;7.346;2022-10-17T09:58:06;98844.63;;;23.61;50.13
71996;BME280;59862;47.732;7.346;2022-10-17T10:00:37;98845.06;;;23.70;49.03
71996;BME280;59862;47.732;7.346;2022-10-17T10:03:22;98850.44;;;23.95;49.40
71996;BME280;59862;47.732;7.346;2022-10-17T10:06:13;98848.66;;;24.18;48.14
71996;BME280;59862;47.732;7.346;2022-10-17T10:08:57;98846.47;;;23.86;48.80
71996;BME280;59862;47.732;7.346;2022-10-17T10:14:32;98858.81;;;23.86;48.70
71996;BME280;59862;47.732;7.346;2022-10-17T10:17:02;98858.55;;;24.54;46.69
71996;BME280;59862;47.732;7.346;2022-10-17T10:19:35;98860.81;;;24.96;46.23
71996;BME280;59862;47.732;7.346;2022-10-17T10:22:05;98857.10;;;25.28;45.44
71996;BME280;59862;47.732;7.346;2022-10-17T10:24:33;98865.70;;;26.09;42.77
71996;BME280;59862;47.732;7.346;2022-10-17T10:27:02;98874.06;;;27.03;41.52
71996;BME280;59862;47.732;7.346;2022-10-17T10:29:42;98873.16;;;27.37;40.72
71996;BME280;59862;47.732;7.346;2022-10-17T10:32:15;98870.01;;;28.05;39.62
71996;BME280;59862;47.732;7.346;2022-10-17T10:37:46;98872.37;;;29.20;36.47
71996;BME280;59862;47.732;7.346;2022-10-17T10:40:25;98870.84;;;29.50;33.67
71996;BME280;59862;47.732;7.346;2022-10-17T10:42:55;98882.06;;;29.79;35.16
71996;BME280;59862;47.732;7.346;2022-10-17T10:45:28;98884.88;;;29.66;34.87
71996;BME280;59862;47.732;7.346;2022-10-17T10:48:03;98879.28;;;29.17;34.98
71996;BME280;59862;47.732;7.346;2022-10-17T10:50:29;98880.42;;;27.83;37.52
71996;BME280;59862;47.732;7.346;2022-10-17T11:01:41;98893.19;;;28.09;37.24
71996;BME280;59862;47.732;7.346;2022-10-17T11:04:28;98890.94;;;29.02;37.18
71996;BME280;59862;47.732;7.346;2022-10-17T11:07:03;98897.71;;;29.98;35.07
71996;BME280;59862;47.732;7.346;2022-10-17T11:12:36;98903.14;;;30.81;33.22
71996;BME280;59862;47.732;7.346;2022-10-17T11:15:35;98904.17;;;29.86;33.93
71996;BME280;59862;47.732;7.346;2022-10-17T11:18:09;98896.69;;;29.28;35.33
71996;BME280;59862;47.732;7.346;2022-10-17T11:23:22;98893.63;;;27.01;39.62
71996;BME280;59862;47.732;7.346;2022-10-17T11:25:51;98887.85;;;26.61;40.32
71996;BME280;59862;47.732;7.346;2022-10-17T11:28:22;98891.36;;;26.17;41.61
71996;BME280;59862;47.732;7.346;2022-10-17T11:30:56;98890.49;;;26.14;42.80
71996;BME280;59862;47.732;7.346;2022-10-17T11:36:18;98883.97;;;26.99;41.47
71996;BME280;59862;47.732;7.346;2022-10-17T11:38:59;98885.23;;;26.81;42.00
71996;BME280;59862;47.732;7.346;2022-10-17T11:41:40;98889.48;;;26.57;41.68
71996;BME280;59862;47.732;7.346;2022-10-17T11:44:19;98889.24;;;26.66;40.65
71996;BME280;59862;47.732;7.346;2022-10-17T11:46:47;98891.41;;;26.25;40.23
71996;BME280;59862;47.732;7.346;2022-10-17T11:49:27;98890.72;;;25.35;42.27
71996;BME280;59862;47.732;7.346;2022-10-17T11:51:59;98829.30;;;24.79;43.75
71996;BME280;59862;47.732;7.346;2022-10-17T11:54:34;98880.20;;;24.70;44.45
71996;BME280;59862;47.732;7.346;2022-10-17T11:57:11;98883.88;;;24.59;44.27
71996;BME280;59862;47.732;7.346;2022-10-17T11:59:47;98876.92;;;24.54;45.12
71996;BME280;59862;47.732;7.346;2022-10-17T12:02:26;98877.59;;;24.61;44.77
71996;BME280;59862;47.732;7.346;2022-10-17T12:04:55;98876.38;;;24.35;44.33
71996;BME280;59862;47.732;7.346;2022-10-17T12:07:40;98878.53;;;24.86;43.97
71996;BME280;59862;47.732;7.346;2022-10-17T12:10:28;98876.81;;;25.69;41.25
71996;BME280;59862;47.732;7.346;2022-10-17T12:12:53;98888.14;;;26.28;40.22
71996;BME280;59862;47.732;7.346;2022-10-17T12:18:02;98879.77;;;25.60;40.51
71996;BME280;59862;47.732;7.346;2022-10-17T12:20:32;98885.41;;;26.30;40.12
71996;BME280;59862;47.732;7.346;2022-10-17T12:25:36;98881.77;;;26.96;38.78
71996;BME280;59862;47.732;7.346;2022-10-17T12:33:36;98873.81;;;27.74;37.74
71996;BME280;59862;47.732;7.346;2022-10-17T12:46:58;98871.23;;;31.76;31.26
71996;BME280;59862;47.732;7.346;2022-10-17T12:49:51;98874.00;;;31.97;30.47
71996;BME280;59862;47.732;7.346;2022-10-17T12:55:12;98871.61;;;33.33;29.26
71996;BME280;59862;47.732;7.346;2022-10-17T12:57:55;98871.09;;;33.31;28.41
71996;BME280;59862;47.732;7.346;2022-10-17T13:00:34;98867.69;;;34.21;27.58
71996;BME280;59862;47.732;7.346;2022-10-17T13:03:05;98869.42;;;33.57;28.31
71996;BME280;59862;47.732;7.346;2022-10-17T13:05:37;98867.17;;;34.08;27.64
71996;BME280;59862;47.732;7.346;2022-10-17T13:08:11;98866.66;;;34.73;26.59
71996;BME280;59862;47.732;7.346;2022-10-17T13:10:38;98865.81;;;35.14;26.48
71996;BME280;59862;47.732;7.346;2022-10-17T13:13:24;98866.67;;;35.79;26.15
71996;BME280;59862;47.732;7.346;2022-10-17T13:15:53;98861.92;;;36.40;25.31
71996;BME280;59862;47.732;7.346;2022-10-17T13:18:26;98859.80;;;36.03;25.42
71996;BME280;59862;47.732;7.346;2022-10-17T13:21:14;98856.25;;;36.83;24.26
71996;BME280;59862;47.732;7.346;2022-10-17T13:23:42;98852.02;;;36.68;24.68
71996;BME280;59862;47.732;7.346;2022-10-17T13:26:16;98855.77;;;36.15;24.92
71996;BME280;59862;47.732;7.346;2022-10-17T13:31:38;98851.97;;;36.62;24.11
71996;BME280;59862;47.732;7.346;2022-10-17T13:34:17;98850.80;;;37.33;24.35
71996;BME280;59862;47.732;7.346;2022-10-17T13:36:47;98849.10;;;37.49;23.45
71996;BME280;59862;47.732;7.346;2022-10-17T13:39:17;98848.36;;;36.36;24.33
71996;BME280;59862;47.732;7.346;2022-10-17T13:41:45;98842.41;;;36.86;24.21
71996;BME280;59862;47.732;7.346;2022-10-17T13:44:23;98845.94;;;36.98;23.65
71996;BME280;59862;47.732;7.346;2022-10-17T13:46:46;98839.85;;;37.34;23.54
71996;BME280;59862;47.732;7.346;2022-10-17T13:51:52;98841.97;;;36.10;24.96
71996;BME280;59862;47.732;7.346;2022-10-17T13:56:55;98844.41;;;35.86;25.27
71996;BME280;59862;47.732;7.346;2022-10-17T13:59:27;98852.02;;;36.68;24.40
71996;BME280;59862;47.732;7.346;2022-10-17T14:01:54;98843.84;;;36.46;24.45
71996;BME280;59862;47.732;7.346;2022-10-17T14:04:22;98849.41;;;35.13;25.77
71996;BME280;59862;47.732;7.346;2022-10-17T14:06:49;98843.72;;;34.95;26.46
71996;BME280;59862;47.732;7.346;2022-10-17T14:09:22;98847.31;;;36.00;25.53
71996;BME280;59862;47.732;7.346;2022-10-17T14:12:10;98847.84;;;35.18;25.95
71996;BME280;59862;47.732;7.346;2022-10-17T14:14:41;98846.50;;;34.76;26.57
71996;BME280;59862;47.732;7.346;2022-10-17T14:17:22;98846.03;;;35.78;26.00
71996;BME280;59862;47.732;7.346;2022-10-17T14:19:45;98845.21;;;35.60;25.46
71996;BME280;59862;47.732;7.346;2022-10-17T14:22:22;98847.30;;;36.09;24.90
71996;BME280;59862;47.732;7.346;2022-10-17T14:24:45;98840.86;;;35.46;25.79
71996;BME280;59862;47.732;7.346;2022-10-17T14:27:32;98846.58;;;34.93;26.42
71996;BME280;59862;47.732;7.346;2022-10-17T14:30:27;98836.23;;;33.33;28.79
71996;BME280;59862;47.732;7.346;2022-10-17T14:32:36;98831.36;;;31.29;31.67
71996;BME280;59862;47.732;7.346;2022-10-17T14:35:05;98826.70;;;29.81;33.43
71996;BME280;59862;47.732;7.346;2022-10-17T14:37:44;98829.41;;;28.69;35.99
71996;BME280;59862;47.732;7.346;2022-10-17T14:40:19;98821.98;;;28.11;37.32
71996;BME280;59862;47.732;7.346;2022-10-17T14:42:48;98825.56;;;26.99;39.82
71996;BME280;59862;47.732;7.346;2022-10-17T14:45:25;98826.16;;;27.12;39.37
71996;BME280;59862;47.732;7.346;2022-10-17T14:47:55;98819.09;;;26.32;40.32
71996;BME280;59862;47.732;7.346;2022-10-17T14:50:26;98823.55;;;26.41;41.23
71996;BME280;59862;47.732;7.346;2022-10-17T14:55:52;98817.18;;;26.03;42.64
71996;BME280;59862;47.732;7.346;2022-10-17T14:58:17;98811.20;;;25.80;42.22